Time;durP1;ratioP1;P1;durP2;ratioP2;P2;SDS_P1;SDS_P2;PMS_P1;PMS_P2;Temp;Humidity;BMP_temperature;BMP_pressure;BME280_temperature;BME280_humidity;BME280_pressure;Samples;Min_cycle;Max_cycle;Signal;HPM_P1;HPM_P2
2022/11/16 00:01:32;;;;;;;1.33;1.23;;;20.30;43.40;;;;;;5053068;28;20213;-61
2022/11/16 00:04:00;;;;;;;1.30;1.20;;;20.30;43.40;;;;;;5054543;28;20984;-61
2022/11/16 00:06:27;;;;;;;1.50;1.40;;;20.30;43.30;;;;;;5054374;28;21077;-61
2022/11/16 00:11:42;;;;;;;1.30;1.20;;;20.30;43.30;;;;;;5053091;28;20560;-61
2022/11/16 00:14:08;;;;;;;1.30;1.20;;;20.30;43.40;;;;;;5054313;28;20886;-61
2022/11/16 00:16:34;;;;;;;1.40;1.30;;;20.30;43.40;;;;;;5060922;28;20213;-61
2022/11/16 00:19:02;;;;;;;1.30;1.20;;;20.30;43.40;;;;;;5059493;28;20471;-61
2022/11/16 00:21:28;;;;;;;1.40;1.30;;;20.30;43.40;;;;;;5060149;28;20217;-61
2022/11/16 00:23:54;;;;;;;1.70;1.60;;;20.30;43.40;;;;;;5055614;28;20458;-61
2022/11/16 00:26:20;;;;;;;1.30;1.20;;;20.30;43.40;;;;;;5059525;28;20465;-61
2022/11/16 00:28:46;;;;;;;1.60;1.50;;;20.30;43.40;;;;;;5057345;28;20229;-61
2022/11/16 00:31:13;;;;;;;1.20;1.10;;;20.30;43.50;;;;;;5057040;28;22875;-61
2022/11/16 00:33:39;;;;;;;1.73;1.63;;;20.30;43.50;;;;;;5057257;28;20473;-61
2022/11/16 00:36:09;;;;;;;1.40;1.30;;;20.30;43.40;;;;;;5058325;28;20462;-61
2022/11/16 00:38:34;;;;;;;1.53;1.43;;;20.30;43.40;;;;;;5054391;28;20508;-61
2022/11/16 00:41:00;;;;;;;1.37;1.27;;;20.30;43.40;;;;;;5057648;28;20487;-61
2022/11/16 00:43:25;;;;;;;1.63;1.17;;;20.30;43.40;;;;;;5056812;28;20229;-61
2022/11/16 00:45:51;;;;;;;1.40;1.30;;;20.30;43.40;;;;;;5060463;28;20209;-61
2022/11/16 00:48:17;;;;;;;1.30;1.20;;;20.30;43.50;;;;;;5055667;28;20298;-61
2022/11/16 00:50:46;;;;;;;1.50;1.40;;;20.30;43.50;;;;;;5057651;28;20273;-61
2022/11/16 00:53:14;;;;;;;1.47;1.37;;;20.30;43.40;;;;;;5051959;28;20244;-61
2022/11/16 00:55:40;;;;;;;1.60;1.50;;;20.30;43.40;;;;;;5059929;28;20457;-61
2022/11/16 00:58:05;;;;;;;1.57;1.47;;;20.30;43.40;;;;;;5059385;28;20457;-61
2022/11/16 01:00:31;;;;;;;1.63;1.40;;;20.30;43.40;;;;;;5059736;28;20221;-61
2022/11/16 01:02:57;;;;;;;1.40;1.30;;;20.30;43.40;;;;;;5062280;28;20218;-61
2022/11/16 01:05:23;;;;;;;1.50;1.40;;;20.30;43.40;;;;;;5060354;28;20243;-61
2022/11/16 01:07:49;;;;;;;1.30;1.20;;;20.30;43.40;;;;;;5059422;28;20630;-61
2022/11/16 01:10:17;;;;;;;1.37;1.27;;;20.30;43.40;;;;;;5059269;28;20945;-62
2022/11/16 01:12:44;;;;;;;1.10;1.00;;;20.30;43.40;;;;;;5058167;28;20489;-61
2022/11/16 01:15:10;;;;;;;1.30;1.20;;;20.30;43.50;;;;;;5058023;28;20501;-61
2022/11/16 01:17:38;;;;;;;1.40;1.30;;;20.30;43.50;;;;;;5058541;28;20558;-61
2022/11/16 01:20:06;;;;;;;1.43;1.33;;;20.30;43.50;;;;;;5058121;28;20470;-62
2022/11/16 01:22:34;;;;;;;1.50;1.20;;;20.30;43.50;;;;;;5059142;28;20462;-61
2022/11/16 01:25:00;;;;;;;1.30;1.20;;;20.30;43.50;;;;;;5058759;28;20466;-61
2022/11/16 01:27:26;;;;;;;1.60;1.50;;;20.30;43.50;;;;;;5052334;28;20458;-61
2022/11/16 01:29:52;;;;;;;1.60;1.50;;;20.30;43.50;;;;;;5056257;28;20221;-61
2022/11/16 01:32:17;;;;;;;1.20;1.10;;;20.30;43.50;;;;;;5060306;28;20792;-61
2022/11/16 01:34:43;;;;;;;1.40;1.30;;;20.30;43.50;;;;;;5056191;28;20244;-61
2022/11/16 01:37:08;;;;;;;1.30;1.20;;;20.30;43.50;;;;;;5055454;28;20692;-60
2022/11/16 01:39:34;;;;;;;1.23;1.13;;;20.30;43.50;;;;;;5054930;28;20571;-61
2022/11/16 01:42:00;;;;;;;2.30;1.37;;;20.30;43.50;;;;;;5053918;28;20571;-61
2022/11/16 01:44:31;;;;;;;1.40;1.30;;;20.30;43.50;;;;;;5054864;28;20222;-61
2022/11/16 01:47:04;;;;;;;1.57;1.47;;;20.30;43.60;;;;;;5055225;28;20929;-61
2022/11/16 01:49:33;;;;;;;1.37;1.27;;;20.30;43.60;;;;;;5060421;28;20569;-61
2022/11/16 01:52:03;;;;;;;1.30;1.20;;;20.30;43.50;;;;;;5057967;28;21115;-61
2022/11/16 01:54:31;;;;;;;1.20;1.10;;;20.30;43.50;;;;;;5055299;28;20946;-61
2022/11/16 01:57:01;;;;;;;1.50;1.40;;;20.30;43.60;;;;;;5056510;28;20466;-61
2022/11/16 01:59:28;;;;;;;1.73;1.40;;;20.30;43.60;;;;;;5056623;28;20454;-60
2022/11/16 02:01:54;;;;;;;1.53;1.43;;;20.30;43.50;;;;;;5057804;28;20454;-61
2022/11/16 02:04:20;;;;;;;1.43;1.33;;;20.30;43.60;;;;;;5055626;28;20436;-61
2022/11/16 02:07:12;;;;;;;1.80;1.40;;;20.30;43.50;;;;;;5052973;28;20332;-61
2022/11/16 02:10:12;;;;;;;1.40;1.30;;;20.30;44.30;;;;;;5052911;28;20221;-61
2022/11/16 02:12:43;;;;;;;1.27;1.17;;;20.30;43.50;;;;;;5053484;28;20502;-61
2022/11/16 02:15:15;;;;;;;1.40;1.30;;;20.20;43.50;;;;;;5058573;28;20463;-61
2022/11/16 02:17:52;;;;;;;1.50;1.40;;;20.30;43.50;;;;;;5058352;28;21228;-61
2022/11/16 02:20:59;;;;;;;1.40;1.30;;;20.30;43.50;;;;;;5055078;28;20552;-61
2022/11/16 02:23:31;;;;;;;1.23;1.13;;;20.30;43.50;;;;;;5039928;28;20470;-62
2022/11/16 02:26:19;;;;;;;1.27;1.17;;;20.30;43.60;;;;;;5057405;28;20537;-61
2022/11/16 02:29:03;;;;;;;1.20;1.10;;;20.30;43.60;;;;;;5058647;28;20718;-61
2022/11/16 02:31:35;;;;;;;1.30;1.20;;;20.30;43.60;;;;;;5058655;28;20458;-61
2022/11/16 02:34:02;;;;;;;1.43;1.33;;;20.30;43.60;;;;;;5057005;28;20482;-62
2022/11/16 02:36:29;;;;;;;1.30;1.20;;;20.30;43.60;;;;;;5058495;28;20462;-61
2022/11/16 02:39:03;;;;;;;1.40;1.30;;;20.30;43.60;;;;;;5058159;28;20515;-61
2022/11/16 02:41:31;;;;;;;1.50;1.40;;;20.20;43.60;;;;;;5058807;28;20462;-61
2022/11/16 02:44:03;;;;;;;1.17;1.07;;;20.20;43.50;;;;;;5059577;28;20462;-61
2022/11/16 02:46:35;;;;;;;1.20;1.10;;;20.30;43.60;;;;;;5059537;28;20458;-61
2022/11/16 02:49:04;;;;;;;1.13;1.03;;;20.30;43.60;;;;;;5057269;28;20957;-61
2022/11/16 02:51:32;;;;;;;1.00;1.00;;;20.20;43.50;;;;;;5058363;28;20462;-61
2022/11/16 02:54:07;;;;;;;1.30;1.20;;;20.30;43.60;;;;;;5057071;28;20485;-61
2022/11/16 02:56:49;;;;;;;1.20;1.10;;;20.20;43.60;;;;;;5060131;28;20431;-61
2022/11/16 02:59:15;;;;;;;1.50;1.40;;;20.30;43.60;;;;;;5054709;28;20537;-62
2022/11/16 03:01:46;;;;;;;1.30;1.20;;;20.20;43.60;;;;;;5052078;28;20457;-63
2022/11/16 03:04:29;;;;;;;1.40;1.30;;;20.30;43.60;;;;;;5052326;28;20213;-62
2022/11/16 03:06:56;;;;;;;1.30;1.20;;;20.30;43.60;;;;;;5056673;28;20953;-62
2022/11/16 03:09:29;;;;;;;1.30;1.20;;;20.20;43.60;;;;;;5056595;28;20450;-62
2022/11/16 03:11:59;;;;;;;1.30;1.20;;;20.20;43.60;;;;;;5049932;28;20980;-61
2022/11/16 03:14:40;;;;;;;1.40;1.30;;;20.20;43.50;;;;;;5055046;28;21044;-62
2022/11/16 03:17:14;;;;;;;1.90;1.80;;;20.20;43.60;;;;;;5054339;28;20470;-62
2022/11/16 03:20:10;;;;;;;1.30;1.20;;;20.20;43.60;;;;;;5052248;28;20497;-62
2022/11/16 03:22:38;;;;;;;1.40;1.30;;;20.20;43.60;;;;;;5056524;28;21001;-62
2022/11/16 03:25:05;;;;;;;1.30;1.10;;;20.20;43.60;;;;;;5057158;28;20991;-62
2022/11/16 03:27:44;;;;;;;1.40;1.30;;;20.20;43.70;;;;;;5054426;28;21011;-62
2022/11/16 03:30:18;;;;;;;1.20;1.10;;;20.20;43.70;;;;;;5056373;28;21079;-62
2022/11/16 03:33:02;;;;;;;1.13;1.03;;;20.20;43.60;;;;;;5058088;28;20450;-62
2022/11/16 03:35:36;;;;;;;1.63;1.20;;;20.20;43.60;;;;;;5055736;28;20965;-61
2022/11/16 03:38:04;;;;;;;2.33;1.33;;;20.20;43.60;;;;;;5052777;28;20579;-62
2022/11/16 03:40:32;;;;;;;1.20;1.10;;;20.20;43.60;;;;;;5054725;28;20440;-61
2022/11/16 03:43:00;;;;;;;1.40;1.30;;;20.20;43.60;;;;;;5033997;28;20786;-61
2022/11/16 03:45:27;;;;;;;1.40;1.30;;;20.20;43.60;;;;;;5055881;28;20553;-61
2022/11/16 03:47:52;;;;;;;1.40;1.30;;;20.20;43.60;;;;;;5052472;28;20466;-62
2022/11/16 03:50:17;;;;;;;1.33;1.23;;;20.20;43.60;;;;;;5052385;28;20822;-62
2022/11/16 03:52:43;;;;;;;1.23;1.13;;;20.20;43.60;;;;;;5053455;28;20278;-61
2022/11/16 03:55:11;;;;;;;1.40;1.30;;;20.20;43.60;;;;;;5055970;28;20266;-62
2022/11/16 03:57:36;;;;;;;1.40;1.30;;;20.20;43.60;;;;;;5055013;28;20224;-62
2022/11/16 04:00:03;;;;;;;1.40;1.30;;;20.20;43.60;;;;;;5053007;28;20513;-61
2022/11/16 04:02:29;;;;;;;1.20;1.10;;;20.20;43.60;;;;;;5053442;28;20300;-62
2022/11/16 04:24:19;;;;;;;1.33;1.23;;;20.20;43.70;;;;;;5052899;28;20492;-62
2022/11/16 04:29:36;;;;;;;1.20;1.10;;;20.20;43.70;;;;;;5053969;28;20481;-61
2022/11/16 04:40:23;;;;;;;1.37;1.27;;;20.20;43.70;;;;;;5052396;28;20853;-61
2022/11/16 04:43:00;;;;;;;1.30;1.20;;;20.20;43.70;;;;;;5049748;28;20890;-61
2022/11/16 04:48:12;;;;;;;1.33;1.23;;;20.20;43.70;;;;;;5053862;28;20515;-62
2022/11/16 04:50:39;;;;;;;1.53;1.20;;;20.20;43.70;;;;;;5054895;28;20482;-61
2022/11/16 04:53:05;;;;;;;1.17;1.07;;;20.20;43.70;;;;;;5053646;28;20489;-61
2022/11/16 04:55:32;;;;;;;1.40;1.30;;;20.20;43.70;;;;;;5054950;28;20470;-62
2022/11/16 04:57:57;;;;;;;1.20;1.10;;;20.20;43.70;;;;;;5050612;28;20472;-62
2022/11/16 05:00:33;;;;;;;1.63;1.43;;;20.20;43.60;;;;;;5052377;28;20462;-62
2022/11/16 05:02:58;;;;;;;1.20;1.10;;;20.20;43.70;;;;;;5052655;28;20307;-61
2022/11/16 05:05:24;;;;;;;1.20;1.10;;;20.20;43.60;;;;;;5058780;28;20949;-62
2022/11/16 05:07:50;;;;;;;1.60;1.50;;;20.30;44.00;;;;;;5056641;28;20264;-61
2022/11/16 05:10:15;;;;;;;1.03;1.00;;;20.30;43.60;;;;;;5053759;28;20225;-62
2022/11/16 05:12:41;;;;;;;1.17;1.07;;;20.30;43.60;;;;;;5058861;28;20225;-62
2022/11/16 05:15:07;;;;;;;1.40;1.30;;;20.30;43.60;;;;;;5054285;28;20225;-62
2022/11/16 05:17:33;;;;;;;1.40;1.30;;;20.30;43.60;;;;;;5055658;28;20225;-61
2022/11/16 05:22:43;;;;;;;1.23;1.13;;;20.30;43.50;;;;;;5057574;28;20276;-61
2022/11/16 05:25:10;;;;;;;1.23;1.10;;;20.30;43.50;;;;;;5052496;28;20489;-62
2022/11/16 05:27:36;;;;;;;1.23;1.13;;;20.30;43.50;;;;;;5055611;28;20693;-61
2022/11/16 05:30:06;;;;;;;1.27;1.17;;;20.30;43.50;;;;;;5053059;28;20433;-61
2022/11/16 05:32:32;;;;;;;1.20;1.10;;;20.30;43.40;;;;;;5055580;28;20466;-62
2022/11/16 05:34:57;;;;;;;2.17;1.50;;;20.30;43.40;;;;;;5057815;28;20455;-61
2022/11/16 05:37:26;;;;;;;1.23;1.10;;;20.30;43.30;;;;;;5053011;28;20218;-63
2022/11/16 05:39:55;;;;;;;1.77;1.10;;;20.40;43.30;;;;;;5053446;28;20240;-60
2022/11/16 05:42:21;;;;;;;1.27;1.17;;;20.30;43.30;;;;;;5058040;28;20960;-62
2022/11/16 05:44:47;;;;;;;1.30;1.20;;;20.40;43.40;;;;;;5060071;28;20504;-61
2022/11/16 05:47:13;;;;;;;1.30;1.20;;;20.40;43.50;;;;;;5055648;28;20287;-62
2022/11/16 05:49:38;;;;;;;1.30;1.20;;;20.40;43.30;;;;;;5052686;28;20916;-62
2022/11/16 05:52:04;;;;;;;1.07;1.00;;;20.40;43.40;;;;;;5059211;28;20241;-61
2022/11/16 05:54:30;;;;;;;1.40;1.30;;;20.30;43.30;;;;;;5058549;28;20232;-61
2022/11/16 05:56:55;;;;;;;1.20;1.10;;;20.30;43.30;;;;;;5052329;28;20225;-61
2022/11/16 05:59:22;;;;;;;1.20;1.10;;;20.30;44.10;;;;;;5057029;28;20442;-61
2022/11/16 06:01:48;;;;;;;1.13;1.03;;;20.40;43.30;;;;;;5053710;28;20268;-61
2022/11/16 06:04:14;;;;;;;3.83;1.10;;;20.30;43.30;;;;;;5048059;28;20969;-61
2022/11/16 06:06:40;;;;;;;1.13;1.10;;;20.40;43.40;;;;;;5051778;28;20425;-61
2022/11/16 06:09:06;;;;;;;1.20;1.10;;;20.30;43.30;;;;;;5056474;28;20324;-61
2022/11/16 06:11:32;;;;;;;1.10;1.00;;;20.40;43.30;;;;;;5057216;28;20592;-60
2022/11/16 06:13:58;;;;;;;1.30;1.20;;;20.30;43.30;;;;;;5055767;28;20870;-61
2022/11/16 06:16:24;;;;;;;1.20;1.10;;;20.30;43.30;;;;;;5056719;28;20489;-61
2022/11/16 06:18:49;;;;;;;1.23;1.13;;;20.40;44.10;;;;;;5058159;28;20615;-60
2022/11/16 06:21:17;;;;;;;1.13;1.03;;;20.30;44.00;;;;;;5058827;28;20300;-60
2022/11/16 06:23:43;;;;;;;1.53;1.00;;;20.40;43.40;;;;;;5056412;28;20225;-60
2022/11/16 06:26:09;;;;;;;1.27;1.00;;;20.40;43.30;;;;;;5053997;28;20442;-60
2022/11/16 06:28:35;;;;;;;0.90;0.90;;;20.30;43.20;;;;;;5053138;28;20472;-60
2022/11/16 06:31:01;;;;;;;1.20;1.10;;;20.40;43.30;;;;;;5050932;28;20240;-61
2022/11/16 06:33:26;;;;;;;1.00;1.00;;;20.30;43.20;;;;;;5050987;28;20456;-61
2022/11/16 06:35:52;;;;;;;1.30;1.20;;;20.30;43.30;;;;;;5055689;28;20442;-61
2022/11/16 06:38:19;;;;;;;1.27;1.10;;;20.30;43.30;;;;;;5054930;28;20225;-61
2022/11/16 06:40:48;;;;;;;2.70;1.23;;;20.30;43.30;;;;;;5052744;28;20237;-61
2022/11/16 06:43:13;;;;;;;1.70;1.10;;;20.40;43.40;;;;;;5051134;28;20962;-62
2022/11/16 06:45:39;;;;;;;3.63;1.30;;;20.30;43.40;;;;;;5056778;28;20458;-62
2022/11/16 06:48:05;;;;;;;1.17;1.00;;;20.30;43.40;;;;;;5056733;28;20228;-61
2022/11/16 06:50:30;;;;;;;1.10;1.00;;;20.30;43.30;;;;;;5060344;28;20234;-62
2022/11/16 06:52:59;;;;;;;1.30;1.20;;;20.30;43.40;;;;;;5060813;28;20233;-61
2022/11/16 06:55:27;;;;;;;1.20;1.10;;;20.30;43.40;;;;;;5059935;28;20214;-61
2022/11/16 06:57:53;;;;;;;1.43;1.33;;;20.30;43.40;;;;;;5034882;28;20821;-62
2022/11/16 07:00:19;;;;;;;1.50;1.40;;;20.30;43.40;;;;;;5054522;28;20499;-62
2022/11/16 07:02:47;;;;;;;1.37;1.23;;;20.30;43.40;;;;;;5060753;28;20251;-62
2022/11/16 07:05:13;;;;;;;1.10;1.00;;;20.30;43.40;;;;;;5058338;28;20229;-62
2022/11/16 07:07:38;;;;;;;1.77;1.10;;;20.30;43.40;;;;;;5053642;28;20485;-61
2022/11/16 07:10:04;;;;;;;1.10;1.00;;;20.30;43.40;;;;;;5054861;28;20305;-62
2022/11/16 07:12:30;;;;;;;1.10;1.00;;;20.30;43.40;;;;;;5050437;28;20221;-63
2022/11/16 07:14:55;;;;;;;1.07;1.00;;;20.30;43.40;;;;;;5054564;28;20504;-60
2022/11/16 07:17:21;;;;;;;1.17;1.07;;;20.30;43.40;;;;;;5054046;28;20278;-60
2022/11/16 07:19:46;;;;;;;3.63;1.10;;;20.30;43.30;;;;;;5052365;28;20225;-60
2022/11/16 07:22:12;;;;;;;1.20;1.10;;;20.30;43.40;;;;;;5056233;28;20224;-60
2022/11/16 07:24:37;;;;;;;1.10;1.00;;;20.30;43.40;;;;;;5051830;28;20730;-60
2022/11/16 07:27:03;;;;;;;1.40;1.13;;;20.30;43.30;;;;;;5057130;28;20216;-60
2022/11/16 07:29:29;;;;;;;1.93;1.00;;;20.30;43.40;;;;;;5054894;28;20848;-60
2022/11/16 07:31:55;;;;;;;1.20;1.10;;;20.30;43.40;;;;;;5058604;28;20880;-60
2022/11/16 07:34:20;;;;;;;1.00;0.97;;;20.30;43.40;;;;;;5059602;28;20474;-60
2022/11/16 07:36:46;;;;;;;1.10;1.00;;;20.30;43.40;;;;;;5056352;28;20237;-60
2022/11/16 07:39:11;;;;;;;1.60;1.10;;;20.30;43.40;;;;;;5055624;28;20263;-60
2022/11/16 07:41:37;;;;;;;1.37;1.10;;;20.30;43.40;;;;;;5054997;28;20213;-60
2022/11/16 07:44:03;;;;;;;2.93;1.00;;;20.30;43.40;;;;;;5057898;28;20237;-60
2022/11/16 07:46:29;;;;;;;1.30;1.20;;;20.30;43.30;;;;;;5055494;28;20296;-60
2022/11/16 07:48:56;;;;;;;1.00;1.00;;;20.30;43.40;;;;;;5055504;28;20477;-60
2022/11/16 07:51:22;;;;;;;2.37;2.17;;;20.30;43.40;;;;;;5052980;28;20549;-60
2022/11/16 07:53:52;;;;;;;1.20;1.10;;;20.30;43.40;;;;;;5052999;28;20538;-60
2022/11/16 07:56:17;;;;;;;1.20;1.00;;;20.30;43.40;;;;;;5052229;28;20434;-60
2022/11/16 07:58:44;;;;;;;1.10;1.00;;;20.30;43.40;;;;;;5053754;28;20464;-60
2022/11/16 08:01:12;;;;;;;1.20;1.10;;;20.30;43.40;;;;;;5053050;28;20229;-61
2022/11/16 08:03:39;;;;;;;1.20;1.10;;;20.30;43.40;;;;;;5054387;28;20548;-60
2022/11/16 08:06:12;;;;;;;1.20;1.10;;;20.30;43.40;;;;;;5034548;28;20939;-60
2022/11/16 08:08:37;;;;;;;1.03;0.93;;;20.30;43.50;;;;;;5053547;28;20450;-60
2022/11/16 08:11:06;;;;;;;0.83;0.83;;;20.30;43.50;;;;;;5055638;28;20543;-60
2022/11/16 08:13:33;;;;;;;1.10;1.00;;;20.30;43.40;;;;;;5054623;28;20688;-60
2022/11/16 08:16:00;;;;;;;1.17;1.07;;;20.30;43.50;;;;;;5054693;28;20450;-60
2022/11/16 08:18:27;;;;;;;1.20;1.10;;;20.30;43.50;;;;;;5049357;28;20466;-61
2022/11/16 08:20:52;;;;;;;1.47;1.37;;;20.30;43.50;;;;;;5036634;28;20823;-61
2022/11/16 08:23:18;;;;;;;1.30;1.20;;;20.30;43.50;;;;;;5056373;28;20446;-60
2022/11/16 08:25:43;;;;;;;1.20;1.10;;;20.30;43.50;;;;;;5056253;28;20253;-60
2022/11/16 08:28:09;;;;;;;0.90;0.90;;;20.30;43.50;;;;;;5052832;28;20214;-60
2022/11/16 08:30:37;;;;;;;1.00;1.00;;;20.30;43.50;;;;;;5054311;28;20229;-60
2022/11/16 08:33:02;;;;;;;1.03;0.93;;;20.30;43.40;;;;;;5051298;28;20267;-60
2022/11/16 08:35:28;;;;;;;1.17;1.00;;;20.30;43.40;;;;;;5059478;28;21520;-60
2022/11/16 08:37:53;;;;;;;0.97;0.90;;;20.30;43.50;;;;;;5060346;28;20221;-61
2022/11/16 08:40:19;;;;;;;0.90;0.90;;;20.30;43.50;;;;;;5057820;28;20593;-60
2022/11/16 08:42:47;;;;;;;1.10;1.00;;;20.30;43.50;;;;;;5055799;28;20257;-60
2022/11/16 08:45:13;;;;;;;0.93;0.90;;;20.30;43.50;;;;;;5057223;28;25673;-60
2022/11/16 08:47:38;;;;;;;1.20;1.00;;;20.30;43.50;;;;;;5056740;28;20568;-60
2022/11/16 08:50:04;;;;;;;1.30;1.20;;;20.30;43.50;;;;;;5056955;28;20317;-63
2022/11/16 08:52:30;;;;;;;1.07;0.97;;;20.30;43.60;;;;;;5058373;28;21049;-63
2022/11/16 08:54:55;;;;;;;1.37;1.13;;;20.30;43.50;;;;;;5058800;28;20260;-62
2022/11/16 08:57:21;;;;;;;1.63;1.00;;;20.30;43.60;;;;;;5050538;28;20221;-61
2022/11/16 08:59:46;;;;;;;1.10;1.00;;;20.30;43.50;;;;;;5041903;28;20221;-62
2022/11/16 09:02:12;;;;;;;3.17;1.00;;;20.30;43.60;;;;;;5042233;28;20483;-61
2022/11/16 09:04:37;;;;;;;1.00;0.87;;;20.30;43.50;;;;;;5046517;28;20261;-61
2022/11/16 09:07:03;;;;;;;2.90;1.10;;;20.30;44.40;;;;;;5047470;28;20235;-61
2022/11/16 09:09:28;;;;;;;1.00;0.90;;;20.30;43.60;;;;;;5043839;28;20237;-62
2022/11/16 09:11:54;;;;;;;1.07;1.00;;;20.30;43.60;;;;;;5042145;28;20244;-62
2022/11/16 09:14:20;;;;;;;0.97;0.90;;;20.30;43.60;;;;;;5039318;28;20221;-62
2022/11/16 09:16:46;;;;;;;2.03;1.00;;;20.30;43.60;;;;;;5046476;28;20217;-62
2022/11/16 09:19:12;;;;;;;1.73;0.80;;;20.30;43.60;;;;;;5047817;28;20475;-62
2022/11/16 09:21:37;;;;;;;1.80;1.10;;;20.30;43.60;;;;;;5042904;28;20231;-61
2022/11/16 09:24:03;;;;;;;2.13;1.10;;;20.30;43.60;;;;;;5040632;28;20798;-62
2022/11/16 09:26:28;;;;;;;1.13;0.90;;;20.30;43.60;;;;;;5042182;28;20221;-62
2022/11/16 09:28:59;;;;;;;1.10;1.00;;;20.30;43.60;;;;;;5046791;28;20218;-62
2022/11/16 09:31:32;;;;;;;1.00;0.90;;;20.30;43.60;;;;;;5044897;28;20248;-62
2022/11/16 09:33:58;;;;;;;1.00;0.90;;;20.30;43.60;;;;;;5046907;28;20464;-62
2022/11/16 09:36:27;;;;;;;1.10;1.00;;;20.30;43.70;;;;;;5045230;28;20438;-63
2022/11/16 09:38:53;;;;;;;1.00;0.90;;;20.30;43.60;;;;;;5041586;28;20279;-62
2022/11/16 09:41:40;;;;;;;1.63;1.00;;;20.30;43.60;;;;;;5047168;28;21186;-63
2022/11/16 09:44:11;;;;;;;1.00;0.90;;;20.30;43.60;;;;;;5043514;28;20239;-62
2022/11/16 09:46:51;;;;;;;2.03;0.97;;;20.30;43.60;;;;;;5043123;28;20558;-62
2022/11/16 09:49:27;;;;;;;1.20;1.10;;;20.30;43.60;;;;;;5040413;28;20555;-61
2022/11/16 09:51:58;;;;;;;1.20;1.10;;;20.30;43.60;;;;;;5039384;28;20466;-61
2022/11/16 09:54:29;;;;;;;1.07;0.97;;;20.30;43.60;;;;;;5043777;28;20440;-63
2022/11/16 09:56:58;;;;;;;1.10;1.00;;;20.40;43.70;;;;;;5044641;28;20468;-62
2022/11/16 09:59:28;;;;;;;1.30;1.20;;;20.30;43.70;;;;;;5040502;28;20477;-62
2022/11/16 10:02:13;;;;;;;1.00;0.90;;;20.30;43.70;;;;;;5045070;28;20562;-61
2022/11/16 10:04:42;;;;;;;3.93;1.30;;;20.30;43.60;;;;;;5043615;28;20523;-61
2022/11/16 10:07:18;;;;;;;0.90;0.80;;;20.30;43.60;;;;;;5038347;28;20456;-62
2022/11/16 10:09:45;;;;;;;0.70;0.70;;;20.30;43.70;;;;;;5043734;28;20459;-62
2022/11/16 10:12:20;;;;;;;1.37;1.07;;;20.30;43.70;;;;;;5045552;28;20455;-62
2022/11/16 10:15:01;;;;;;;0.83;0.83;;;20.40;43.70;;;;;;5046059;28;20481;-61
2022/11/16 10:17:39;;;;;;;1.20;1.10;;;20.40;43.70;;;;;;5039712;28;21018;-61
2022/11/16 10:20:18;;;;;;;0.80;0.73;;;20.30;43.70;;;;;;5042617;28;20469;-62
2022/11/16 10:23:04;;;;;;;1.00;0.90;;;20.40;43.80;;;;;;5041944;28;21722;-61
2022/11/16 10:25:43;;;;;;;1.10;1.00;;;20.40;43.70;;;;;;5040103;28;20501;-61
2022/11/16 10:28:25;;;;;;;1.10;0.80;;;20.40;43.70;;;;;;5044284;28;20494;-61
2022/11/16 10:31:27;;;;;;;1.10;0.83;;;20.40;43.70;;;;;;5037723;28;21048;-61
2022/11/16 10:33:55;;;;;;;1.10;1.00;;;20.30;43.60;;;;;;5039974;28;20442;-62
2022/11/16 10:36:26;;;;;;;1.20;1.10;;;20.40;43.70;;;;;;5045292;28;20868;-62
2022/11/16 10:38:55;;;;;;;1.13;0.90;;;20.40;43.70;;;;;;5041781;28;20831;-60
2022/11/16 10:41:34;;;;;;;1.10;0.87;;;20.40;43.80;;;;;;5043367;28;20446;-60
2022/11/16 10:44:01;;;;;;;0.90;0.80;;;20.40;43.70;;;;;;5040604;28;20460;-60
2022/11/16 10:46:39;;;;;;;1.00;0.90;;;20.40;43.70;;;;;;5042861;28;20469;-59
2022/11/16 10:49:24;;;;;;;1.10;1.00;;;20.40;43.70;;;;;;5040868;28;21294;-61
2022/11/16 10:51:49;;;;;;;1.00;0.90;;;20.40;43.70;;;;;;5043284;28;20501;-59
2022/11/16 10:54:16;;;;;;;1.40;1.10;;;20.40;43.70;;;;;;5027863;28;20565;-59
2022/11/16 10:57:01;;;;;;;1.20;1.03;;;20.40;43.70;;;;;;5041440;28;21241;-60
2022/11/16 10:59:47;;;;;;;1.00;0.90;;;20.40;43.70;;;;;;5042301;28;20458;-59
2022/11/16 11:02:29;;;;;;;0.90;0.80;;;20.40;43.70;;;;;;5042712;28;20465;-60
2022/11/16 11:05:04;;;;;;;0.93;0.83;;;20.40;43.70;;;;;;5039831;28;20493;-60
2022/11/16 11:07:38;;;;;;;1.20;1.10;;;20.40;43.80;;;;;;5032970;28;20468;-60
2022/11/16 11:10:20;;;;;;;1.00;0.90;;;20.40;43.80;;;;;;5035168;28;20476;-60
2022/11/16 11:13:06;;;;;;;0.80;0.80;;;20.40;43.70;;;;;;5040440;28;20478;-60
2022/11/16 11:15:32;;;;;;;0.90;0.90;;;20.40;43.70;;;;;;5039615;28;21184;-60
2022/11/16 11:18:18;;;;;;;1.07;0.90;;;20.40;43.70;;;;;;5038164;28;20482;-60
2022/11/16 11:21:05;;;;;;;1.20;1.00;;;20.40;43.70;;;;;;5040778;28;20237;-60
2022/11/16 11:23:41;;;;;;;3.30;1.00;;;20.40;43.70;;;;;;5038579;28;20543;-60
2022/11/16 11:26:20;;;;;;;0.70;0.70;;;20.40;43.70;;;;;;5044475;28;20511;-60
2022/11/16 11:28:48;;;;;;;1.00;0.90;;;20.40;43.70;;;;;;5041695;28;20443;-60
2022/11/16 11:31:26;;;;;;;0.80;0.80;;;20.40;43.80;;;;;;5037407;28;20470;-60
2022/11/16 11:34:03;;;;;;;1.10;1.00;;;20.40;43.70;;;;;;5042107;28;20509;-60
2022/11/16 11:36:59;;;;;;;1.10;1.00;;;20.40;43.80;;;;;;5039087;28;20455;-60
2022/11/16 11:39:34;;;;;;;1.63;1.00;;;20.40;43.80;;;;;;5018478;28;20432;-60
2022/11/16 11:42:04;;;;;;;1.00;0.90;;;20.40;43.80;;;;;;5039562;28;20518;-60
2022/11/16 11:44:48;;;;;;;0.93;0.83;;;20.40;43.70;;;;;;5034606;28;22177;-60
2022/11/16 11:47:26;;;;;;;1.37;1.00;;;20.40;43.80;;;;;;5041658;28;21030;-60
2022/11/16 11:50:01;;;;;;;1.40;1.30;;;20.40;43.80;;;;;;5040447;28;20458;-60
2022/11/16 11:52:41;;;;;;;0.80;0.80;;;20.40;43.80;;;;;;5035972;28;20470;-60
2022/11/16 11:55:12;;;;;;;1.00;0.90;;;20.40;43.70;;;;;;5038119;28;20548;-60
2022/11/16 11:57:42;;;;;;;1.07;0.97;;;20.40;43.70;;;;;;5038749;28;20503;-60
2022/11/16 12:00:12;;;;;;;0.80;0.70;;;20.40;43.80;;;;;;5039614;28;20458;-61
2022/11/16 12:03:05;;;;;;;0.90;0.73;;;20.40;43.70;;;;;;5035905;28;20500;-60
2022/11/16 12:05:52;;;;;;;1.10;1.00;;;20.50;43.80;;;;;;5038451;28;20717;-60
2022/11/16 12:08:35;;;;;;;1.00;0.90;;;20.40;43.80;;;;;;5039093;28;20553;-60
2022/11/16 12:11:07;;;;;;;1.10;1.00;;;20.40;43.80;;;;;;5040606;28;20469;-60
2022/11/16 12:13:56;;;;;;;1.00;0.80;;;20.40;43.80;;;;;;5035472;28;20458;-60
2022/11/16 12:16:36;;;;;;;0.87;0.80;;;20.40;43.80;;;;;;5042736;28;21507;-60
2022/11/16 12:19:31;;;;;;;1.07;1.00;;;20.40;43.80;;;;;;5036287;28;20469;-60
2022/11/16 12:22:05;;;;;;;1.00;0.90;;;20.40;43.80;;;;;;5048327;28;21767;-60
2022/11/16 12:24:43;;;;;;;0.90;0.80;;;20.50;43.90;;;;;;5040487;28;20462;-60
2022/11/16 12:27:43;;;;;;;0.80;0.77;;;20.50;43.90;;;;;;5041662;28;20488;-60
2022/11/16 12:30:18;;;;;;;0.80;0.80;;;20.50;43.90;;;;;;5042474;28;20467;-60
2022/11/16 12:32:44;;;;;;;0.83;0.80;;;20.50;43.90;;;;;;5039336;28;20462;-59
2022/11/16 12:35:32;;;;;;;0.83;0.83;;;20.50;43.90;;;;;;5041296;28;20531;-60
2022/11/16 12:38:08;;;;;;;1.47;1.37;;;20.50;43.90;;;;;;5040117;28;20217;-60
2022/11/16 12:40:52;;;;;;;0.73;0.73;;;20.50;43.90;;;;;;5042519;28;21040;-60
2022/11/16 12:43:26;;;;;;;1.00;0.90;;;20.40;43.80;;;;;;5040371;28;20462;-60
2022/11/16 12:46:14;;;;;;;2.00;0.90;;;20.50;43.90;;;;;;5042780;28;20461;-59
2022/11/16 12:48:56;;;;;;;1.20;0.90;;;20.50;43.90;;;;;;5045655;28;20859;-60
2022/11/16 12:51:30;;;;;;;1.03;0.93;;;20.50;43.90;;;;;;5044512;28;20552;-60
2022/11/16 12:54:22;;;;;;;1.00;0.90;;;20.40;43.80;;;;;;5043317;28;20454;-60
2022/11/16 12:57:23;;;;;;;1.10;1.00;;;20.50;43.90;;;;;;5039299;28;20454;-60
2022/11/16 13:00:14;;;;;;;0.80;0.80;;;20.50;43.90;;;;;;5040497;28;20466;-60
2022/11/16 13:02:53;;;;;;;1.00;0.90;;;20.50;43.90;;;;;;5039487;28;20515;-59
2022/11/16 13:05:40;;;;;;;0.80;0.80;;;20.50;43.90;;;;;;5041416;28;20469;-60
2022/11/16 13:08:30;;;;;;;0.97;0.87;;;20.50;43.90;;;;;;5038789;28;21126;-60
2022/11/16 13:11:20;;;;;;;1.00;0.90;;;20.40;43.80;;;;;;5040284;28;20984;-60
2022/11/16 13:13:48;;;;;;;0.80;0.80;;;20.40;43.80;;;;;;5024794;28;20466;-60
2022/11/16 13:16:16;;;;;;;1.43;0.90;;;20.50;43.90;;;;;;5040926;28;20891;-60
2022/11/16 13:18:43;;;;;;;1.03;0.70;;;20.50;44.00;;;;;;5036542;28;20474;-60
2022/11/16 13:21:36;;;;;;;1.53;0.70;;;20.40;43.90;;;;;;5043951;28;20545;-60
2022/11/16 13:24:28;;;;;;;0.80;0.80;;;20.40;43.90;;;;;;5039048;28;20501;-60
2022/11/16 13:27:20;;;;;;;0.80;0.70;;;20.50;43.90;;;;;;5040048;28;20462;-60
2022/11/16 13:30:05;;;;;;;0.90;0.90;;;20.40;43.90;;;;;;5040718;28;20477;-60
2022/11/16 13:32:52;;;;;;;1.00;0.80;;;20.40;43.90;;;;;;5038900;28;20573;-60
2022/11/16 13:35:19;;;;;;;0.80;0.80;;;20.40;43.90;;;;;;5038404;28;20617;-60
2022/11/16 13:37:50;;;;;;;2.27;0.90;;;20.40;43.90;;;;;;5040268;28;20541;-60
2022/11/16 13:40:30;;;;;;;1.00;0.80;;;20.40;43.90;;;;;;5041503;28;20453;-60
2022/11/16 13:43:11;;;;;;;0.80;0.80;;;20.40;43.90;;;;;;5039568;28;20857;-60
2022/11/16 13:45:49;;;;;;;1.00;0.80;;;20.50;44.00;;;;;;5040240;28;21086;-60
2022/11/16 13:48:18;;;;;;;0.90;0.87;;;20.40;43.90;;;;;;5035778;28;20469;-60